createdAt,value
2022-12-19T00:00:32.592Z,97490.13
2022-12-19T00:03:00.668Z,97483.94
2022-12-19T00:05:29.683Z,97487.91
2022-12-19T00:07:57.138Z,97489.53
2022-12-19T00:10:26.855Z,97498.47
2022-12-19T00:12:55.381Z,97499.91
2022-12-19T00:15:22.809Z,97500.72
2022-12-19T00:17:50.242Z,97502.59
2022-12-19T00:20:18.661Z,97501.16
2022-12-19T00:22:47.645Z,97502.81
2022-12-19T00:25:17.379Z,97503.78
2022-12-19T00:27:44.952Z,97515.41
2022-12-19T00:30:13.243Z,97505.91
2022-12-19T00:32:41.454Z,97506.28
2022-12-19T00:35:09.837Z,97507.31
2022-12-19T00:37:37.480Z,97504.00
2022-12-19T00:40:11.762Z,97503.78
2022-12-19T00:42:39.357Z,97497.56
2022-12-19T00:45:07.544Z,97495.69
2022-12-19T00:47:35.517Z,97499.22
2022-12-19T00:50:03.556Z,97494.06
2022-12-19T00:52:31.034Z,97504.63
2022-12-19T00:55:00.684Z,97504.63
2022-12-19T00:57:31.561Z,97494.84
2022-12-19T00:59:59.000Z,97499.81
2022-12-19T01:02:27.437Z,97491.13
2022-12-19T01:04:55.329Z,97494.66
2022-12-19T01:07:22.798Z,97495.25
2022-12-19T01:09:50.333Z,97493.00
2022-12-19T01:12:18.800Z,97485.38
2022-12-19T01:14:49.351Z,97481.66
2022-12-19T01:17:16.872Z,97469.56
2022-12-19T01:19:44.861Z,97475.06
2022-12-19T01:22:12.689Z,97469.09
2022-12-19T01:24:40.619Z,97475.66
2022-12-19T01:27:08.264Z,97466.91
2022-12-19T01:29:38.708Z,97455.66
2022-12-19T01:32:21.526Z,97457.31
2022-12-19T01:34:49.475Z,97460.56
2022-12-19T01:37:20.496Z,97457.69
2022-12-19T01:39:47.935Z,97462.41
2022-12-19T01:42:19.605Z,97459.72
2022-12-19T01:45:06.358Z,97449.53
2022-12-19T01:47:43.458Z,97448.63
2022-12-19T01:50:18.133Z,97458.59
2022-12-19T01:52:46.682Z,97439.91
2022-12-19T01:55:15.025Z,97448.41
2022-12-19T01:57:42.530Z,97441.56
2022-12-19T02:00:11.265Z,97438.66
2022-12-19T02:02:48.821Z,97432.81
2022-12-19T02:05:16.955Z,97428.91
2022-12-19T02:07:45.271Z,97432.44
2022-12-19T02:10:12.875Z,97423.53
2022-12-19T02:12:43.240Z,97418.72
2022-12-19T02:15:14.876Z,97426.00
2022-12-19T02:17:57.678Z,97430.56
2022-12-19T02:21:03.793Z,97429.97
2022-12-19T02:24:13.188Z,97417.44
2022-12-19T02:27:04.165Z,97414.75
2022-12-19T02:30:02.289Z,97415.59
2022-12-19T02:32:34.700Z,97413.69
2022-12-19T02:35:13.582Z,97404.16
2022-12-19T02:37:48.931Z,97410.63
2022-12-19T02:40:24.796Z,97408.31
2022-12-19T02:42:57.750Z,97399.03
2022-12-19T02:45:28.606Z,97397.38
2022-12-19T02:48:03.327Z,97396.53
2022-12-19T02:50:39.682Z,97384.91
2022-12-19T02:53:09.510Z,97394.72
2022-12-19T02:55:48.173Z,97380.56
2022-12-19T02:58:43.800Z,97375.03
2022-12-19T03:01:26.765Z,97374.13
2022-12-19T03:04:06.515Z,97379.69
2022-12-19T03:06:42.021Z,97370.81
2022-12-19T03:09:20.115Z,97367.97
2022-12-19T03:11:52.395Z,97365.00
2022-12-19T03:14:26.741Z,97368.44
2022-12-19T03:16:56.086Z,97367.84
2022-12-19T03:19:25.376Z,97364.00
2022-12-19T03:21:52.897Z,97359.91
2022-12-19T03:24:20.448Z,97360.41
2022-12-19T03:26:53.335Z,97358.94
2022-12-19T03:29:25.757Z,97362.44
2022-12-19T03:31:54.454Z,97356.44
2022-12-19T03:34:28.890Z,97352.69
2022-12-19T03:37:00.110Z,97344.38
2022-12-19T03:39:29.322Z,97348.94
2022-12-19T03:41:59.408Z,97355.38
2022-12-19T03:44:31.563Z,97350.16
2022-12-19T03:47:06.155Z,97350.16
2022-12-19T03:49:36.576Z,97348.47
2022-12-19T03:52:12.946Z,97341.81
2022-12-19T03:54:44.640Z,97341.00
2022-12-19T03:57:19.301Z,97332.28
2022-12-19T03:59:51.843Z,97327.50
2022-12-19T04:02:22.114Z,97322.69
2022-12-19T04:04:55.527Z,97318.34
2022-12-19T04:07:24.353Z,97307.56
2022-12-19T04:09:54.609Z,97308.97
2022-12-19T04:12:25.731Z,97309.69
2022-12-19T04:14:53.402Z,97306.88
2022-12-19T04:17:34.887Z,97303.13
2022-12-19T04:20:06.556Z,97305.22
2022-12-19T04:22:40.077Z,97304.41
2022-12-19T04:25:11.559Z,97306.03
2022-12-19T04:27:43.887Z,97307.31
2022-12-19T04:30:14.895Z,97311.44
2022-12-19T04:32:45.967Z,97310.63
2022-12-19T04:35:15.726Z,97321.19
2022-12-19T04:37:43.356Z,97303.34
2022-12-19T04:40:11.963Z,97317.88
2022-12-19T04:42:40.428Z,97309.31
2022-12-19T04:45:08.680Z,97308.16
2022-12-19T04:47:36.336Z,97311.00
2022-12-19T04:50:05.281Z,97307.25
2022-12-19T04:52:34.188Z,97312.63
2022-12-19T04:55:01.665Z,97316.75
2022-12-19T04:57:30.547Z,97305.50
2022-12-19T04:59:58.667Z,97302.56
2022-12-19T05:02:26.649Z,97297.81
2022-12-19T05:04:54.359Z,97306.56
2022-12-19T05:07:21.783Z,97303.09
2022-12-19T05:09:50.679Z,97303.56
2022-12-19T05:12:18.184Z,97297.03
2022-12-19T05:14:46.036Z,97288.13
2022-12-19T05:17:13.929Z,97290.47
2022-12-19T05:19:42.115Z,97296.63
2022-12-19T05:22:09.527Z,97295.13
2022-12-19T05:24:37.088Z,97300.28
2022-12-19T05:27:06.107Z,97284.00
2022-12-19T05:29:33.655Z,97289.84
2022-12-19T05:32:01.742Z,97288.69
2022-12-19T05:34:29.898Z,97292.66
2022-12-19T05:36:57.348Z,97294.16
2022-12-19T05:39:24.967Z,97292.22
2022-12-19T05:41:52.445Z,97296.56
2022-12-19T05:44:21.509Z,97281.22
2022-12-19T05:46:48.958Z,97278.50
2022-12-19T05:49:16.727Z,97290.16
2022-12-19T05:51:48.736Z,97288.25
2022-12-19T05:54:16.176Z,97278.84
2022-12-19T05:56:43.635Z,97279.09
2022-12-19T05:59:11.088Z,97282.22
2022-12-19T06:01:40.162Z,97280.44
2022-12-19T06:04:07.704Z,97279.00
2022-12-19T06:06:35.536Z,97282.44
2022-12-19T06:09:03.369Z,97276.00
2022-12-19T06:11:30.893Z,97275.78
2022-12-19T06:13:58.442Z,97272.44
2022-12-19T06:16:26.009Z,97277.56
2022-12-19T06:18:55.283Z,97284.06
2022-12-19T06:21:23.412Z,97276.09
2022-12-19T06:23:51.203Z,97279.31
2022-12-19T06:26:20.673Z,97285.28
2022-12-19T06:28:49.215Z,97279.16
2022-12-19T06:31:17.392Z,97275.78
2022-12-19T06:33:45.331Z,97282.34
2022-12-19T06:36:18.818Z,97280.69
2022-12-19T06:38:46.942Z,97266.41
2022-12-19T06:41:15.639Z,97277.41
2022-12-19T06:43:43.277Z,97270.53
2022-12-19T06:46:11.677Z,97277.19
2022-12-19T06:48:39.337Z,97278.84
2022-12-19T06:51:07.163Z,97274.03
2022-12-19T06:53:36.195Z,97274.25
2022-12-19T06:56:04.579Z,97266.63
2022-12-19T06:58:33.658Z,97265.34
2022-12-19T07:01:01.471Z,97253.28
2022-12-19T07:03:39.094Z,97260.31
2022-12-19T07:06:07.399Z,97255.72
2022-12-19T07:08:36.465Z,97252.91
2022-12-19T07:11:04.590Z,97260.53
2022-12-19T07:13:32.149Z,97255.97
2022-12-19T07:16:03.098Z,97253.84
2022-12-19T07:18:33.922Z,97258.41
2022-12-19T07:21:02.266Z,97258.66
2022-12-19T07:23:30.035Z,97255.50
2022-12-19T07:25:59.282Z,97248.25
2022-12-19T07:28:27.072Z,97245.75
2022-12-19T07:30:54.535Z,97244.13
2022-12-19T07:33:22.308Z,97245.75
2022-12-19T07:35:49.819Z,97236.03
2022-12-19T07:38:17.308Z,97236.38
2022-12-19T07:40:44.737Z,97232.84
2022-12-19T07:43:14.371Z,97229.56
2022-12-19T07:45:43.304Z,97233.56
2022-12-19T07:48:10.816Z,97228.75
2022-12-19T07:50:38.465Z,97226.53
2022-12-19T07:53:06.089Z,97224.06
2022-12-19T07:55:33.599Z,97229.56
2022-12-19T07:58:01.328Z,97229.78
2022-12-19T08:00:30.241Z,97230.16
2022-12-19T08:02:59.189Z,97228.03
2022-12-19T08:05:26.842Z,97237.78
2022-12-19T08:07:54.331Z,97236.13
2022-12-19T08:10:22.351Z,97226.41
2022-12-19T08:12:49.902Z,97221.25
2022-12-19T08:15:17.669Z,97227.44
2022-12-19T08:17:46.556Z,97224.97
2022-12-19T08:20:14.158Z,97223.59
2022-12-19T08:22:41.575Z,97233.06
2022-12-19T08:25:09.597Z,97238.72
2022-12-19T08:27:39.018Z,97232.84
2022-12-19T08:30:08.951Z,97225.22
2022-12-19T08:32:36.528Z,97222.53
2022-12-19T08:35:06.765Z,97217.13
2022-12-19T08:40:17.430Z,97209.25
2022-12-19T08:42:44.971Z,97211.16
2022-12-19T08:45:12.807Z,97213.16
2022-12-19T08:47:40.321Z,97220.41
2022-12-19T08:50:10.335Z,97216.88
2022-12-19T08:52:38.071Z,97213.38
2022-12-19T08:55:06.588Z,97203.84
2022-12-19T08:57:34.074Z,97197.28
2022-12-19T09:00:01.607Z,97202.56
2022-12-19T09:02:30.071Z,97195.91
2022-12-19T09:05:57.907Z,97192.59
2022-12-19T09:07:46.656Z,97184.97
2022-12-19T09:10:14.293Z,97185.66
2022-12-19T09:12:43.876Z,97186.25
2022-12-19T09:17:52.825Z,97177.09
2022-12-19T09:20:23.397Z,97177.53
2022-12-19T09:22:52.791Z,97178.25
2022-12-19T09:25:20.295Z,97171.00
2022-12-19T09:28:25.832Z,97180.25
2022-12-19T09:30:35.560Z,97174.06
2022-12-19T09:33:03.963Z,97175.34
2022-12-19T09:35:31.756Z,97160.91
2022-12-19T09:38:01.207Z,97167.81
2022-12-19T09:40:31.532Z,97165.28
2022-12-19T09:43:08.871Z,97165.84
2022-12-19T09:45:50.138Z,97164.78
2022-12-19T09:48:24.497Z,97158.81
2022-12-19T09:51:09.653Z,97166.06
2022-12-19T09:53:54.251Z,97171.94
2022-12-19T09:56:25.985Z,97172.38
2022-12-19T09:59:01.049Z,97171.66
2022-12-19T10:01:32.660Z,97176.94
2022-12-19T10:04:05.195Z,97176.41
2022-12-19T10:07:00.746Z,97183.44
2022-12-19T10:12:00.256Z,97185.66
2022-12-19T10:12:43.618Z,97175.13
2022-12-19T10:15:23.284Z,97177.94
2022-12-19T10:18:04.694Z,97167.84
2022-12-19T10:20:37.239Z,97174.53
2022-12-19T10:23:24.283Z,97160.81
2022-12-19T10:25:59.771Z,97156.81
2022-12-19T10:28:42.285Z,97168.06
2022-12-19T10:31:21.966Z,97157.28
2022-12-19T10:33:57.576Z,97163.16
2022-12-19T10:36:48.621Z,97161.25
2022-12-19T10:39:22.425Z,97152.59
2022-12-19T10:41:56.867Z,97145.31
2022-12-19T10:44:28.482Z,97149.41
2022-12-19T10:46:56.557Z,97141.91
2022-12-19T10:49:26.896Z,97145.06
2022-12-19T10:51:58.798Z,97130.75
2022-12-19T10:54:37.129Z,97134.03
2022-12-19T10:57:23.486Z,97125.38
2022-12-19T10:59:58.636Z,97125.13
2022-12-19T11:02:40.852Z,97106.84
2022-12-19T11:05:24.046Z,97111.97
2022-12-19T11:08:02.230Z,97106.59
2022-12-19T11:12:03.977Z,97108.47
2022-12-19T11:18:51.977Z,97098.38
2022-12-19T11:22:05.391Z,97099.69
2022-12-19T11:29:31.409Z,97093.00
2022-12-19T11:29:37.052Z,97092.03
2022-12-19T11:29:41.908Z,97099.81
2022-12-19T11:30:47.661Z,97095.78
2022-12-19T11:33:30.988Z,97095.91
2022-12-19T11:36:00.971Z,97095.91
2022-12-19T11:38:42.566Z,97093.22
2022-12-19T11:41:16.441Z,97088.88
2022-12-19T11:43:53.175Z,97094.28
2022-12-19T11:46:37.344Z,97091.44
2022-12-19T11:49:12.292Z,97088.41
2022-12-19T11:51:49.057Z,97090.63
2022-12-19T11:54:22.172Z,97080.88
2022-12-19T11:56:50.388Z,97097.69
2022-12-19T11:59:20.138Z,97097.44
2022-12-19T12:01:57.334Z,97095.44
2022-12-19T12:04:55.902Z,97093.56
2022-12-19T12:08:27.117Z,97081.72
2022-12-19T12:18:04.849Z,97074.91
2022-12-19T12:18:50.516Z,97064.47
2022-12-19T12:24:10.213Z,97079.81
2022-12-19T12:31:22.105Z,97051.19
2022-12-19T12:31:22.106Z,97050.38
2022-12-19T12:31:31.738Z,97061.97
2022-12-19T12:31:56.860Z,97054.72
2022-12-19T12:34:25.133Z,97050.13
2022-12-19T12:40:25.992Z,97047.44
2022-12-19T12:43:04.317Z,97050.13
2022-12-19T12:45:37.092Z,97052.81
2022-12-19T12:48:18.213Z,97046.50
2022-12-19T12:50:54.795Z,97050.13
2022-12-19T12:53:26.713Z,97041.56
2022-12-19T12:55:57.258Z,97046.13
2022-12-19T12:59:01.822Z,97036.47
2022-12-19T13:01:35.621Z,97039.19
2022-12-19T13:04:07.054Z,97041.06
2022-12-19T13:06:39.131Z,97037.53
2022-12-19T13:09:24.314Z,97030.41
2022-12-19T13:12:02.911Z,97027.38
2022-12-19T13:14:48.862Z,97031.69
2022-12-19T13:17:44.652Z,97019.50
2022-12-19T13:20:40.859Z,97025.94
2022-12-19T13:23:22.826Z,97020.78
2022-12-19T13:25:53.030Z,97027.00
2022-12-19T13:28:41.447Z,97023.13
2022-12-19T13:31:23.283Z,97015.38
2022-12-19T13:34:19.513Z,97024.09
2022-12-19T13:39:49.332Z,97014.56
2022-12-19T13:39:59.502Z,97011.63
2022-12-19T13:42:35.024Z,97004.59
2022-12-19T13:45:09.008Z,96998.88
2022-12-19T13:47:41.245Z,97000.38
2022-12-19T13:50:22.421Z,96998.47
2022-12-19T13:52:50.310Z,96979.56
2022-12-19T13:55:20.127Z,96971.72
2022-12-19T13:57:49.101Z,96974.06
2022-12-19T14:00:21.268Z,96971.59
2022-12-19T14:02:51.889Z,96965.13
2022-12-19T14:05:53.336Z,96963.25
2022-12-19T14:08:19.625Z,96968.53
2022-12-19T14:11:48.247Z,96961.75
2022-12-19T14:13:53.821Z,96952.84
2022-12-19T14:16:43.223Z,96945.69
2022-12-19T14:19:19.910Z,96952.94
2022-12-19T14:22:06.931Z,96941.94
2022-12-19T14:24:35.264Z,96939.47
2022-12-19T14:28:24.935Z,96938.66
2022-12-19T14:30:30.029Z,96935.72
2022-12-19T14:33:45.929Z,96929.72
2022-12-19T14:36:12.444Z,96927.84
2022-12-19T14:39:25.839Z,96925.16
2022-12-19T14:41:31.550Z,96912.72
2022-12-19T14:52:26.236Z,96905.09
2022-12-19T14:52:35.817Z,96910.81
2022-12-19T14:54:20.629Z,96897.00
2022-12-19T14:54:44.052Z,96898.88
2022-12-19T14:56:03.861Z,96897.00
2022-12-19T14:58:54.154Z,96889.00
2022-12-19T15:01:23.706Z,96879.78
2022-12-19T15:04:48.265Z,96880.72
2022-12-19T15:07:08.448Z,96871.31
2022-12-19T15:10:58.319Z,96870.97
2022-12-19T15:14:49.588Z,96880.47
2022-12-19T15:15:22.099Z,96874.25
2022-12-19T15:17:52.692Z,96872.38
2022-12-19T15:20:20.641Z,96872.69
2022-12-19T15:22:48.197Z,96871.06
2022-12-19T15:25:36.530Z,96871.91
2022-12-19T15:28:12.237Z,96871.06
2022-12-19T15:30:43.196Z,96875.16
2022-12-19T15:33:16.824Z,96865.09
2022-12-19T15:35:44.681Z,96868.63
2022-12-19T15:38:12.376Z,96878.09
2022-12-19T15:40:41.647Z,96883.19
2022-12-19T15:43:53.119Z,96887.75
2022-12-19T15:46:03.735Z,96912.25
2022-12-19T15:48:38.084Z,96923.19
2022-12-19T15:51:05.813Z,96910.97
2022-12-19T15:53:40.814Z,96920.97
2022-12-19T15:56:23.564Z,96923.19
2022-12-19T15:58:52.515Z,96928.00
2022-12-19T16:01:20.232Z,96921.19
2022-12-19T16:03:50.362Z,96908.19
2022-12-19T16:06:18.314Z,96906.88
2022-12-19T16:08:46.544Z,96909.56
2022-12-19T16:11:20.304Z,96914.50
2022-12-19T16:13:51.809Z,96905.81
2022-12-19T16:16:19.431Z,96910.63
2022-12-19T16:18:48.734Z,96913.91
2022-12-19T16:21:24.725Z,96911.81
2022-12-19T16:23:57.283Z,96908.84
2022-12-19T16:26:32.800Z,96915.06
2022-12-19T16:29:01.445Z,96921.28
2022-12-19T16:31:29.567Z,96913.91
2022-12-19T16:33:58.692Z,96915.56
2022-12-19T16:36:26.246Z,96901.34
2022-12-19T16:38:54.291Z,96907.78
2022-12-19T16:41:24.163Z,96892.66
2022-12-19T16:43:52.823Z,96902.53
2022-12-19T16:46:22.427Z,96913.44
2022-12-19T16:48:50.747Z,96903.09
2022-12-19T16:51:22.000Z,96906.41
2022-12-19T16:53:50.683Z,96908.03
2022-12-19T16:56:24.459Z,96915.09
2022-12-19T16:58:52.902Z,96925.50
2022-12-19T17:01:21.162Z,96926.06
2022-12-19T17:03:48.828Z,96929.25
2022-12-19T17:06:18.330Z,96933.94
2022-12-19T17:08:47.715Z,96945.88
2022-12-19T17:11:18.564Z,96934.88
2022-12-19T17:13:48.527Z,96938.75
2022-12-19T17:16:16.369Z,96944.25
2022-12-19T17:18:45.287Z,96945.06
2022-12-19T17:21:17.321Z,96941.44
2022-12-19T17:23:47.510Z,96951.28
2022-12-19T17:26:17.993Z,96947.78
2022-12-19T17:28:46.078Z,96955.72
2022-12-19T17:31:22.529Z,96950.25
2022-12-19T17:33:50.502Z,96957.50
2022-12-19T17:36:23.043Z,96959.13
2022-12-19T17:38:53.509Z,96970.84
2022-12-19T17:41:20.990Z,96979.66
2022-12-19T17:43:48.525Z,96994.31
2022-12-19T17:46:17.916Z,96988.19
2022-12-19T17:48:46.789Z,96978.47
2022-12-19T17:51:14.479Z,96991.72
2022-12-19T17:53:42.113Z,96992.56
2022-12-19T17:56:13.766Z,96998.19
2022-12-19T17:58:41.625Z,97020.56
2022-12-19T18:01:20.782Z,97030.44
2022-12-19T18:03:49.458Z,97034.53
2022-12-19T18:06:17.384Z,97045.91
2022-12-19T18:08:45.293Z,97050.16
2022-12-19T18:11:19.935Z,97050.75
2022-12-19T18:13:47.600Z,97051.34
2022-12-19T18:16:17.540Z,97052.84
2022-12-19T18:18:46.327Z,97059.41
2022-12-19T18:21:17.167Z,97062.94
2022-12-19T18:23:44.884Z,97064.00
2022-12-19T18:26:13.303Z,97073.53
2022-12-19T18:28:43.897Z,97076.22
2022-12-19T18:31:15.600Z,97065.66
2022-12-19T18:33:46.882Z,97072.91
2022-12-19T18:36:19.346Z,97070.69
2022-12-19T18:38:47.583Z,97078.56
2022-12-19T18:41:16.571Z,97081.25
2022-12-19T18:43:45.942Z,97102.00
2022-12-19T18:46:14.874Z,97109.75
2022-12-19T18:48:44.574Z,97116.56
2022-12-19T18:51:16.548Z,97124.66
2022-12-19T18:53:46.276Z,97127.94
2022-12-19T18:56:14.677Z,97144.81
2022-12-19T18:58:42.174Z,97152.91
2022-12-19T19:01:15.388Z,97156.19
2022-12-19T19:03:48.992Z,97158.91
2022-12-19T19:06:19.423Z,97161.59
2022-12-19T19:08:47.086Z,97157.25
2022-12-19T19:11:39.722Z,97157.03
2022-12-19T19:14:07.247Z,97153.75
2022-12-19T19:16:37.163Z,97151.63
2022-12-19T19:19:08.385Z,97147.53
2022-12-19T19:21:36.416Z,97151.63
2022-12-19T19:24:08.885Z,97145.88
2022-12-19T19:26:36.392Z,97159.38
2022-12-19T19:29:04.331Z,97157.25
2022-12-19T19:31:37.026Z,97167.25
2022-12-19T19:34:09.158Z,97160.78
2022-12-19T19:36:38.680Z,97166.66
2022-12-19T19:39:06.313Z,97167.00
2022-12-19T19:41:33.788Z,97165.97
2022-12-19T19:44:01.331Z,97164.53
2022-12-19T19:46:29.303Z,97168.53
2022-12-19T19:48:58.424Z,97166.19
2022-12-19T19:51:26.490Z,97167.25
2022-12-19T19:53:53.921Z,97161.00
2022-12-19T19:56:21.413Z,97171.59
2022-12-19T19:58:48.956Z,97164.78
2022-12-19T20:01:16.684Z,97176.97
2022-12-19T20:03:45.209Z,97180.16
2022-12-19T20:06:14.616Z,97183.44
2022-12-19T20:08:42.150Z,97185.41
2022-12-19T20:11:10.190Z,97196.34
2022-12-19T20:13:38.344Z,97199.38
2022-12-19T20:16:07.630Z,97199.63
2022-12-19T20:18:36.308Z,97204.19
2022-12-19T20:21:09.221Z,97202.53
2022-12-19T20:23:42.280Z,97211.69
2022-12-19T20:26:10.417Z,97212.38
2022-12-19T20:28:43.871Z,97215.66
2022-12-19T20:31:16.413Z,97217.56
2022-12-19T20:33:43.872Z,97229.41
2022-12-19T20:36:12.867Z,97239.16
2022-12-19T20:38:42.523Z,97246.63
2022-12-19T20:41:09.661Z,97252.28
2022-12-19T20:43:37.256Z,97259.31
2022-12-19T20:46:08.095Z,97260.38
2022-12-19T20:48:35.749Z,97262.47
2022-12-19T20:51:04.079Z,97266.09
2022-12-19T20:53:31.784Z,97263.75
2022-12-19T20:56:02.189Z,97277.84
2022-12-19T20:58:31.932Z,97287.78
2022-12-19T21:01:04.885Z,97291.53
2022-12-19T21:03:32.646Z,97281.91
2022-12-19T21:06:00.656Z,97295.97
2022-12-19T21:08:28.378Z,97303.00
2022-12-19T21:10:56.343Z,97298.47
2022-12-19T21:13:25.529Z,97308.19
2022-12-19T21:15:54.115Z,97311.25
2022-12-19T21:18:21.982Z,97316.38
2022-12-19T21:20:50.907Z,97316.97
2022-12-19T21:23:18.370Z,97316.84
2022-12-19T21:25:45.827Z,97317.66
2022-12-19T21:28:13.542Z,97332.34
2022-12-19T21:30:42.620Z,97335.03
2022-12-19T21:33:10.528Z,97346.53
2022-12-19T21:35:38.226Z,97343.47
2022-12-19T21:38:05.660Z,97339.88
2022-12-19T21:40:35.522Z,97341.41
2022-12-19T21:43:08.088Z,97337.88
2022-12-19T21:45:39.152Z,97343.84
2022-12-19T21:48:08.235Z,97341.53
2022-12-19T21:50:35.699Z,97338.03
2022-12-19T21:53:03.221Z,97344.44
2022-12-19T21:55:30.651Z,97347.75
2022-12-19T21:57:59.655Z,97358.56
2022-12-19T22:00:27.202Z,97369.78
2022-12-19T22:03:12.755Z,97372.94
2022-12-19T22:05:43.312Z,97377.50
2022-12-19T22:08:11.374Z,97371.41
2022-12-19T22:10:39.149Z,97372.84
2022-12-19T22:13:06.562Z,97376.38
2022-12-19T22:15:35.669Z,97384.31
2022-12-19T22:18:03.194Z,97384.91
2022-12-19T22:20:30.664Z,97395.34
2022-12-19T22:22:59.556Z,97400.75
2022-12-19T22:25:27.127Z,97390.19
2022-12-19T22:27:55.857Z,97390.78
2022-12-19T22:30:23.305Z,97380.19
2022-12-19T22:32:50.752Z,97385.97
2022-12-19T22:35:18.343Z,97397.59
2022-12-19T22:37:45.934Z,97401.78
2022-12-19T22:40:15.267Z,97395.56
2022-12-19T22:42:42.707Z,97391.06
2022-12-19T22:45:10.873Z,97403.88
2022-12-19T22:47:42.120Z,97410.13
2022-12-19T22:50:09.992Z,97413.88
2022-12-19T22:52:38.286Z,97419.19
2022-12-19T22:55:06.741Z,97424.56
2022-12-19T22:57:35.614Z,97433.13
2022-12-19T23:00:05.818Z,97443.47
2022-12-19T23:02:33.928Z,97447.44
2022-12-19T23:05:01.530Z,97449.06
2022-12-19T23:07:28.993Z,97451.75
2022-12-19T23:09:56.448Z,97449.59
2022-12-19T23:12:23.924Z,97457.25
2022-12-19T23:14:53.868Z,97460.16
2022-12-19T23:17:21.393Z,97456.19
2022-12-19T23:19:48.852Z,97463.81
2022-12-19T23:22:16.484Z,97459.72
2022-12-19T23:24:45.754Z,97459.88
2022-12-19T23:27:13.674Z,97453.13
2022-12-19T23:29:43.276Z,97455.38
2022-12-19T23:32:12.549Z,97458.22
2022-12-19T23:34:39.990Z,97473.59
2022-12-19T23:37:11.866Z,97469.00
2022-12-19T23:39:40.165Z,97470.66
2022-12-19T23:42:07.614Z,97472.75
2022-12-19T23:44:35.298Z,97482.94
2022-12-19T23:47:04.030Z,97481.72
2022-12-19T23:49:33.938Z,97471.09
2022-12-19T23:52:01.252Z,97485.06
2022-12-19T23:54:28.829Z,97482.34
2022-12-19T23:56:56.308Z,97480.25
2022-12-19T23:59:23.845Z,97499.13
